Time,TemperatureF,DewpointF,PressureIn,WindDirection,WindDirectionDegrees,WindSpeedMPH,WindSpeedGustMPH,Humidity,HourlyPrecipIn,Conditions,Clouds,dailyrainin,SoftwareType,DateUTC
2013-03-05 00:00:00,22.6,22.1,29.82,ENE,67,0.0,-999.0,98,-99.99,,,0.00,Acu-Link.com,2013-03-05 05:00:00,
2013-03-05 00:15:00,22.6,22.1,29.83,ENE,67,0.0,-999.0,98,-99.99,,,0.00,Acu-Link.com,2013-03-05 05:15:00,
2013-03-05 00:30:00,22.6,22.1,29.83,East,90,0.0,-999.0,98,-99.99,,,0.00,Acu-Link.com,2013-03-05 05:30:00,
2013-03-05 00:45:00,23.2,22.7,29.84,ENE,67,0.0,-999.0,98,-99.99,,,0.00,Acu-Link.com,2013-03-05 05:45:00,
2013-03-05 01:00:00,23.0,22.5,29.84,ENE,67,0.0,-999.0,98,-99.99,,,0.00,Acu-Link.com,2013-03-05 06:00:00,
2013-03-05 01:15:00,23.0,22.5,29.84,East,90,0.0,-999.0,98,-99.99,,,0.00,Acu-Link.com,2013-03-05 06:15:00,
2013-03-05 01:30:00,23.0,22.5,29.85,ENE,67,0.0,-999.0,98,-99.99,,,0.00,Acu-Link.com,2013-03-05 06:30:00,
2013-03-05 01:45:00,23.7,23.2,29.85,ENE,67,0.0,-999.0,98,-99.99,,,0.00,Acu-Link.com,2013-03-05 06:45:00,
2013-03-05 02:00:00,23.5,23.0,29.85,ENE,67,0.0,-999.0,98,-99.99,,,0.00,Acu-Link.com,2013-03-05 07:00:00,
2013-03-05 02:16:00,23.7,23.2,29.85,East,90,0.0,-999.0,98,-99.99,,,0.00,Acu-Link.com,2013-03-05 07:16:00,
2013-03-05 02:31:00,23.9,23.4,29.84,ENE,67,0.0,-999.0,98,-99.99,,,0.00,Acu-Link.com,2013-03-05 07:31:00,
2013-03-05 02:46:00,23.9,23.4,29.83,ENE,67,0.0,-999.0,98,-99.99,,,0.00,Acu-Link.com,2013-03-05 07:46:00,
2013-03-05 03:01:00,23.9,23.4,29.82,ENE,67,0.0,-999.0,98,-99.99,,,0.00,Acu-Link.com,2013-03-05 08:01:00,
2013-03-05 03:16:00,23.9,23.4,29.83,NE,45,0.0,-999.0,98,-99.99,,,0.00,Acu-Link.com,2013-03-05 08:16:00,
2013-03-05 03:31:00,23.9,23.4,29.82,ENE,67,0.0,-999.0,98,-99.99,,,0.00,Acu-Link.com,2013-03-05 08:31:00,
2013-03-05 03:47:00,23.9,23.4,29.83,ENE,67,0.0,-999.0,98,-99.99,,,0.00,Acu-Link.com,2013-03-05 08:47:00,
2013-03-05 04:02:00,23.2,22.7,29.82,ENE,67,0.0,-999.0,98,-99.99,,,0.00,Acu-Link.com,2013-03-05 09:02:00,
2013-03-05 04:17:00,23.0,22.5,29.83,East,90,0.0,-999.0,98,-99.99,,,0.00,Acu-Link.com,2013-03-05 09:17:00,
2013-03-05 04:32:00,23.4,22.9,29.82,ENE,67,0.0,-999.0,98,-99.99,,,0.00,Acu-Link.com,2013-03-05 09:32:00,
2013-03-05 04:47:00,23.9,23.4,29.82,East,90,0.0,-999.0,98,-99.99,,,0.00,Acu-Link.com,2013-03-05 09:47:00,
2013-03-05 05:02:00,23.9,23.4,29.81,NE,45,0.0,-999.0,98,-99.99,,,0.00,Acu-Link.com,2013-03-05 10:02:00,
2013-03-05 05:17:00,23.4,22.9,29.82,East,90,0.0,-999.0,98,-99.99,,,0.00,Acu-Link.com,2013-03-05 10:17:00,
2013-03-05 05:33:00,23.0,22.5,29.83,East,90,0.0,-999.0,98,-99.99,,,0.00,Acu-Link.com,2013-03-05 10:33:00,
2013-03-05 05:48:00,22.6,22.1,29.82,East,90,0.0,-999.0,98,-99.99,,,0.00,Acu-Link.com,2013-03-05 10:48:00,
2013-03-05 06:03:00,22.6,22.1,29.81,East,90,0.0,-999.0,98,-99.99,,,0.00,Acu-Link.com,2013-03-05 11:03:00,
2013-03-05 06:18:00,22.6,22.1,29.82,East,90,0.0,-999.0,98,-99.99,,,0.00,Acu-Link.com,2013-03-05 11:18:00,
2013-03-05 06:33:00,22.6,22.1,29.81,East,90,0.0,-999.0,98,-99.99,,,0.00,Acu-Link.com,2013-03-05 11:33:00,
2013-03-05 06:48:00,23.5,23.0,29.81,East,90,0.0,-999.0,98,-99.99,,,0.00,Acu-Link.com,2013-03-05 11:48:00,
2013-03-05 07:03:00,24.3,23.8,29.81,ENE,67,0.0,-999.0,98,-99.99,,,0.00,Acu-Link.com,2013-03-05 12:03:00,
2013-03-05 07:18:00,25.0,24.5,29.80,East,90,0.0,-999.0,98,-99.99,,,0.00,Acu-Link.com,2013-03-05 12:18:00,
2013-03-05 07:34:00,25.7,25.2,29.80,WNW,292,0.0,-999.0,98,-99.99,,,0.00,Acu-Link.com,2013-03-05 12:34:00,
2013-03-05 07:49:00,26.2,25.7,29.80,NNW,337,0.0,-999.0,98,-99.99,,,0.00,Acu-Link.com,2013-03-05 12:49:00,
2013-03-05 08:04:00,26.4,25.9,29.80,West,270,0.0,-999.0,98,-99.99,,,0.00,Acu-Link.com,2013-03-05 13:04:00,
2013-03-05 08:19:00,26.8,26.3,29.80,West,270,0.0,-999.0,98,-99.99,,,0.00,Acu-Link.com,2013-03-05 13:19:00,
2013-03-05 08:34:00,28.0,27.5,29.79,WNW,292,0.0,-999.0,98,-99.99,,,0.00,Acu-Link.com,2013-03-05 13:34:00,
2013-03-05 08:49:00,30.2,29.7,29.79,NNW,337,0.0,-999.0,98,-99.99,,,0.00,Acu-Link.com,2013-03-05 13:49:00,
2013-03-05 09:04:00,32.5,32.0,29.80,SW,225,0.0,-999.0,98,-99.99,,,0.00,Acu-Link.com,2013-03-05 14:04:00,
2013-03-05 09:19:00,32.9,32.4,29.79,South,180,1.7,-999.0,98,-99.99,,,0.00,Acu-Link.com,2013-03-05 14:19:00,
2013-03-05 09:34:00,34.5,34.0,29.77,NE,45,0.0,-999.0,98,-99.99,,,0.00,Acu-Link.com,2013-03-05 14:34:00,
2013-03-05 09:49:00,36.7,36.2,29.75,NNE,22,1.7,-999.0,98,-99.99,,,0.00,Acu-Link.com,2013-03-05 14:49:00,
2013-03-05 10:05:00,37.2,32.2,29.76,East,90,2.7,-999.0,82,-99.99,,,0.00,Acu-Link.com,2013-03-05 15:05:00,
2013-03-05 10:20:00,39.0,31.8,29.77,WNW,292,3.7,-999.0,75,-99.99,,,0.00,Acu-Link.com,2013-03-05 15:20:00,
2013-03-05 10:35:00,39.2,30.6,29.74,NW,315,4.2,-999.0,71,-99.99,,,0.00,Acu-Link.com,2013-03-05 15:35:00,
2013-03-05 10:50:00,39.9,30.2,29.75,SSW,202,3.7,-999.0,68,-99.99,,,0.00,Acu-Link.com,2013-03-05 15:50:00,
2013-03-05 11:05:00,40.8,27.6,29.74,WSW,247,0.0,-999.0,59,-99.99,,,0.00,Acu-Link.com,2013-03-05 16:05:00,
2013-03-05 11:20:00,42.8,27.8,29.73,SE,135,5.3,-999.0,55,-99.99,,,0.00,Acu-Link.com,2013-03-05 16:20:00,
2013-03-05 11:35:00,42.8,26.9,29.73,West,270,2.2,-999.0,53,-99.99,,,0.00,Acu-Link.com,2013-03-05 16:35:00,
2013-03-05 11:50:00,44.2,25.3,29.71,West,270,2.7,-999.0,47,-99.99,,,0.00,Acu-Link.com,2013-03-05 16:50:00,
2013-03-05 12:05:00,44.4,23.3,29.70,ENE,67,4.2,-999.0,43,-99.99,,,0.00,Acu-Link.com,2013-03-05 17:05:00,
2013-03-05 12:21:00,45.0,23.9,29.69,ENE,67,0.0,-999.0,43,-99.99,,,0.00,Acu-Link.com,2013-03-05 17:21:00,
2013-03-05 12:36:00,46.4,22.8,29.69,West,270,1.1,-999.0,39,-99.99,,,0.00,Acu-Link.com,2013-03-05 17:36:00,
2013-03-05 12:51:00,47.3,22.4,29.67,ESE,112,3.7,-999.0,37,-99.99,,,0.00,Acu-Link.com,2013-03-05 17:51:00,
2013-03-05 13:06:00,47.8,20.8,29.66,ESE,112,0.0,-999.0,34,-99.99,,,0.00,Acu-Link.com,2013-03-05 18:06:00,
2013-03-05 13:21:00,48.0,24.8,29.65,WNW,292,0.0,-999.0,40,-99.99,,,0.00,Acu-Link.com,2013-03-05 18:21:00,
2013-03-05 13:36:00,48.2,41.7,29.64,SSW,202,3.7,-999.0,78,-99.99,,,0.00,Acu-Link.com,2013-03-05 18:36:00,
2013-03-05 13:51:00,50.7,21.2,29.63,ENE,67,2.2,-999.0,31,-99.99,,,0.00,Acu-Link.com,2013-03-05 18:51:00,
2013-03-05 14:06:00,50.7,19.6,29.60,ENE,67,2.7,-999.0,29,-99.99,,,0.00,Acu-Link.com,2013-03-05 19:06:00,
2013-03-05 14:21:00,52.9,19.0,29.59,SSE,157,0.0,-999.0,26,-99.99,,,0.00,Acu-Link.com,2013-03-05 19:21:00,
2013-03-05 14:37:00,54.1,16.1,29.58,East,90,5.3,-999.0,22,-99.99,,,0.00,Acu-Link.com,2013-03-05 19:37:00,
2013-03-05 14:52:00,52.5,13.7,29.58,East,90,5.3,-999.0,21,-99.99,,,0.00,Acu-Link.com,2013-03-05 19:52:00,
2013-03-05 15:07:00,54.0,18.0,29.56,NE,45,5.8,-999.0,24,-99.99,,,0.00,Acu-Link.com,2013-03-05 20:07:00,
2013-03-05 15:22:00,54.0,20.8,29.56,WNW,292,2.2,-999.0,27,-99.99,,,0.00,Acu-Link.com,2013-03-05 20:22:00,
2013-03-05 15:37:00,54.9,29.1,29.55,SW,225,0.0,-999.0,37,-99.99,,,0.00,Acu-Link.com,2013-03-05 20:37:00,
2013-03-05 15:52:00,53.6,28.0,29.55,ENE,67,3.2,-999.0,37,-99.99,,,0.00,Acu-Link.com,2013-03-05 20:52:00,
2013-03-05 16:07:00,54.9,27.8,29.54,East,90,2.7,-999.0,35,-99.99,,,0.00,Acu-Link.com,2013-03-05 21:07:00,
2013-03-05 16:22:00,53.8,27.5,29.53,ENE,67,4.7,-999.0,36,-99.99,,,0.00,Acu-Link.com,2013-03-05 21:22:00,
2013-03-05 16:37:00,53.1,26.9,29.53,NE,45,5.3,-999.0,36,-99.99,,,0.00,Acu-Link.com,2013-03-05 21:37:00,
2013-03-05 16:53:00,53.2,25.6,29.52,East,90,2.2,-999.0,34,-99.99,,,0.00,Acu-Link.com,2013-03-05 21:53:00,
2013-03-05 17:08:00,52.3,25.5,29.52,NE,45,2.7,-999.0,35,-99.99,,,0.00,Acu-Link.com,2013-03-05 22:08:00,
2013-03-05 17:23:00,51.4,27.9,29.51,SE,135,3.7,-999.0,40,-99.99,,,0.00,Acu-Link.com,2013-03-05 22:23:00,
2013-03-05 17:38:00,50.2,26.8,29.49,SSE,157,6.8,-999.0,40,-99.99,,,0.00,Acu-Link.com,2013-03-05 22:38:00,
2013-03-05 17:53:00,48.7,24.9,29.48,ENE,67,4.2,-999.0,39,-99.99,,,0.00,Acu-Link.com,2013-03-05 22:53:00,
2013-03-05 18:08:00,47.7,24.6,29.47,East,90,3.7,-999.0,40,-99.99,,,0.00,Acu-Link.com,2013-03-05 23:08:00,
2013-03-05 18:23:00,47.1,24.0,29.49,ENE,67,2.7,-999.0,40,-99.99,,,0.00,Acu-Link.com,2013-03-05 23:23:00,
2013-03-05 18:38:00,46.8,22.5,29.48,West,270,2.2,-999.0,38,-99.99,,,0.00,Acu-Link.com,2013-03-05 23:38:00,
2013-03-05 18:53:00,46.0,21.2,29.47,ENE,67,4.2,-999.0,37,-99.99,,,0.00,Acu-Link.com,2013-03-05 23:53:00,
2013-03-05 19:09:00,45.9,21.1,29.47,WNW,292,0.0,-999.0,37,-99.99,,,0.00,Acu-Link.com,2013-03-06 00:09:00,
2013-03-05 19:24:00,45.3,19.9,29.45,NE,45,4.7,-999.0,36,-99.99,,,0.00,Acu-Link.com,2013-03-06 00:24:00,
2013-03-05 19:39:00,45.0,20.9,29.44,East,90,8.9,-999.0,38,-99.99,,,0.00,Acu-Link.com,2013-03-06 00:39:00,
2013-03-05 19:54:00,44.6,21.8,29.43,SSW,202,3.7,-999.0,40,-99.99,,,0.00,Acu-Link.com,2013-03-06 00:54:00,
2013-03-05 20:09:00,44.4,22.2,29.42,SW,225,2.2,-999.0,41,-99.99,,,0.00,Acu-Link.com,2013-03-06 01:09:00,
2013-03-05 20:24:00,44.1,21.9,29.41,NNE,22,2.7,-999.0,41,-99.99,,,0.00,Acu-Link.com,2013-03-06 01:24:00,
2013-03-05 20:39:00,43.9,21.7,29.41,East,90,2.7,-999.0,41,-99.99,,,0.00,Acu-Link.com,2013-03-06 01:39:00,
2013-03-05 20:54:00,43.5,21.4,29.41,East,90,3.7,-999.0,41,-99.99,,,0.00,Acu-Link.com,2013-03-06 01:54:00,
2013-03-05 21:09:00,43.3,21.8,29.40,East,90,7.8,-999.0,42,-99.99,,,0.00,Acu-Link.com,2013-03-06 02:09:00,
2013-03-05 21:25:00,43.3,21.2,29.42,NNW,337,5.8,-999.0,41,-99.99,,,0.00,Acu-Link.com,2013-03-06 02:25:00,
2013-03-05 21:40:00,42.8,24.0,29.42,ENE,67,5.8,-999.0,47,-99.99,,,0.00,Acu-Link.com,2013-03-06 02:40:00,
2013-03-05 21:55:00,40.8,32.8,29.42,SSW,202,2.7,-999.0,73,-99.99,,,0.00,Acu-Link.com,2013-03-06 02:55:00,
2013-03-05 22:10:00,39.0,38.5,29.43,East,90,4.2,-999.0,98,-99.99,,,0.00,Acu-Link.com,2013-03-06 03:10:00,
2013-03-05 22:25:00,36.5,36.0,29.41,ESE,112,0.0,-999.0,98,-99.99,,,0.00,Acu-Link.com,2013-03-06 03:25:00,
2013-03-05 22:40:00,35.1,34.6,29.41,ESE,112,3.7,-999.0,98,-99.99,,,0.00,Acu-Link.com,2013-03-06 03:40:00,
2013-03-05 22:55:00,34.5,34.0,29.39,East,90,8.3,-999.0,98,-99.99,,,0.01,Acu-Link.com,2013-03-06 03:55:00,
2013-03-05 23:10:00,34.2,33.7,29.39,ENE,67,4.2,-999.0,98,-99.99,,,0.01,Acu-Link.com,2013-03-06 04:10:00,
2013-03-05 23:25:00,34.0,33.5,29.39,West,270,0.0,-999.0,98,-99.99,,,0.01,Acu-Link.com,2013-03-06 04:25:00,
2013-03-05 23:41:00,33.8,33.3,29.38,South,180,2.7,-999.0,98,-99.99,,,0.01,Acu-Link.com,2013-03-06 04:41:00,
2013-03-05 23:56:00,33.8,33.3,29.38,West,270,1.7,-999.0,98,-99.99,,,0.01,Acu-Link.com,2013-03-06 04:56:00,